»·PEaware :: N335AK KSAC-KBNO

N335AK :: KSAC-KBNO

FLIGHT INFORMATION

Flight Status: Arrived
Operator: Privately registered:
United States
More flights under this callsign
Pilot: Gabor H. (24209)
Aircraft: Unknown
(EPIC)
More flights by this aircraft type
Origin: KSAC Sacramento Executive
United States
Destination: KBNO Burns Mun
United States
More flights between these airports :: More routes between these airports
Route: SAC V6 SWR FMG J7 REO BELYA
File this flight plan on PilotEdge
Remarks:
Altitude:
(Current/Filed)
31,000ft
Speed:
(Current/Filed)
325kts
Departed: 10-Nov-20 03:47 PM
Arrived: 10-Nov-20 05:07 PM
Distance/Time
Traveled:
325nm/1:20
Distance/Time
To Go:
Arrived

Flight Plot

Page will automatically refresh every two minutes.

Flight plan parsing failed; only flown route is shown


Map Options




Map Legend


Flown Route
Filed Route
Departure Airport
Arrival Airport
Navaid (VOR, NDB)
Fix

Horizontal Profiles

Position Reports

Time Latitude Longitude Heading Altitude Ground
Speed
10-Nov-20 15:33 38.514770 -121.498394 226 23ft 0kts
10-Nov-20 15:34 38.514770 -121.498394 226 23ft 0kts
10-Nov-20 15:35 38.514770 -121.498394 226 23ft 0kts
10-Nov-20 15:36 38.514770 -121.498394 226 23ft 0kts
10-Nov-20 15:37 38.514770 -121.498394 226 23ft 0kts
10-Nov-20 15:38 38.514770 -121.498394 226 23ft 0kts
10-Nov-20 15:39 38.514770 -121.498394 226 23ft 0kts
10-Nov-20 15:40 38.514770 -121.498394 226 23ft 0kts
10-Nov-20 15:41 38.514770 -121.498394 226 23ft 0kts
10-Nov-20 15:42 38.513652 -121.495460 58 24ft 13kts
10-Nov-20 15:43 38.516606 -121.492992 32 25ft 17kts
10-Nov-20 15:44 38.519184 -121.490507 93 25ft 0kts
10-Nov-20 15:45 38.518287 -121.489868 215 26ft 14kts
10-Nov-20 15:46 38.491372 -121.496675 139 1369ft 179kts
10-Nov-20 15:47 38.494124 -121.430030 25 3466ft 223kts
10-Nov-20 15:48 38.540356 -121.386432 50 6800ft 219kts
10-Nov-20 15:49 38.577530 -121.322558 48 9942ft 233kts
10-Nov-20 15:50 38.616760 -121.255056 47 13017ft 242kts
10-Nov-20 15:51 38.657641 -121.184561 47 15780ft 255kts
10-Nov-20 15:52 38.700628 -121.110257 46 18142ft 265kts
10-Nov-20 15:53 38.744984 -121.033435 46 19941ft 273kts
10-Nov-20 15:54 38.790702 -120.954095 45 21443ft 281kts
10-Nov-20 15:55 38.837877 -120.872021 45 22666ft 289kts
10-Nov-20 15:56 38.885927 -120.788175 45 23691ft 296kts
10-Nov-20 15:57 38.935190 -120.701990 44 24684ft 301kts
10-Nov-20 15:58 38.984967 -120.614680 44 25683ft 305kts
10-Nov-20 15:59 39.035202 -120.526324 44 26688ft 307kts
10-Nov-20 16:00 39.085561 -120.437488 43 27703ft 308kts
10-Nov-20 16:01 39.135844 -120.348563 44 28744ft 307kts
10-Nov-20 16:02 39.185834 -120.260172 42 29714ft 304kts
10-Nov-20 16:03 39.236057 -120.173019 41 30694ft 302kts
10-Nov-20 16:04 39.286727 -120.084990 41 31171ft 317kts
10-Nov-20 16:05 39.341201 -119.989930 42 31167ft 339kts
10-Nov-20 16:06 39.398137 -119.890284 42 31149ft 349kts
10-Nov-20 16:07 39.456322 -119.788159 43 31134ft 355kts
10-Nov-20 16:08 39.514909 -119.685008 43 31132ft 357kts
10-Nov-20 16:09 39.591147 -119.622935 10 31134ft 320kts
10-Nov-20 16:10 39.672983 -119.577202 9 31136ft 320kts
10-Nov-20 16:11 39.754911 -119.531419 10 31136ft 321kts
10-Nov-20 16:12 39.836767 -119.485554 9 31141ft 321kts
10-Nov-20 16:13 39.918581 -119.439591 9 31140ft 321kts
10-Nov-20 16:14 40.000262 -119.393587 9 31140ft 321kts
10-Nov-20 16:15 40.082354 -119.347237 10 31138ft 321kts
10-Nov-20 16:16 40.163977 -119.301026 10 31135ft 320kts
10-Nov-20 16:17 40.245605 -119.254683 10 31132ft 320kts
10-Nov-20 16:18 40.327041 -119.208336 10 31137ft 320kts
10-Nov-20 16:19 40.408564 -119.161818 10 31134ft 320kts
10-Nov-20 16:20 40.490191 -119.115113 10 31135ft 320kts
10-Nov-20 16:21 40.571586 -119.068415 10 31136ft 320kts
10-Nov-20 16:22 40.653026 -119.021555 10 31137ft 320kts
10-Nov-20 16:23 40.734580 -118.974516 10 31135ft 320kts
10-Nov-20 16:24 40.816080 -118.927374 9 31137ft 321kts
10-Nov-20 16:25 40.897872 -118.879938 9 31136ft 322kts
10-Nov-20 16:26 40.979858 -118.832264 9 31137ft 323kts
10-Nov-20 16:27 41.062293 -118.784208 10 31138ft 325kts
10-Nov-20 16:28 41.145438 -118.735588 11 31142ft 329kts
10-Nov-20 16:29 41.229008 -118.686571 11 31143ft 331kts
10-Nov-20 16:30 41.313390 -118.636959 11 31144ft 332kts
10-Nov-20 16:31 41.397523 -118.587338 11 31143ft 332kts
10-Nov-20 16:32 41.482011 -118.537369 11 31144ft 332kts
10-Nov-20 16:33 41.566416 -118.487314 11 31142ft 333kts
10-Nov-20 16:34 41.650976 -118.437020 11 31129ft 333kts
10-Nov-20 16:35 41.735640 -118.386515 11 31096ft 334kts
10-Nov-20 16:36 41.820610 -118.335681 11 31069ft 334kts
10-Nov-20 16:37 41.905101 -118.284988 11 31069ft 332kts
10-Nov-20 16:38 41.988985 -118.234518 11 31068ft 331kts
10-Nov-20 16:39 42.073021 -118.183799 11 31070ft 331kts
10-Nov-20 16:41 42.156815 -118.133087 11 31070ft 331kts
10-Nov-20 16:42 42.240961 -118.082007 11 31073ft 332kts
10-Nov-20 16:43 42.325001 -118.030846 11 31072ft 332kts
10-Nov-20 16:44 42.409998 -117.979021 12 30547ft 349kts
10-Nov-20 16:45 42.502534 -117.922294 14 28644ft 380kts
10-Nov-20 16:46 42.600880 -117.890923 335 26472ft 350kts
10-Nov-20 16:47 42.677711 -117.961156 315 24574ft 332kts
10-Nov-20 16:48 42.748001 -118.036216 314 24069ft 307kts
10-Nov-20 16:49 42.813370 -118.106356 314 24069ft 294kts
10-Nov-20 16:50 42.881443 -118.179605 315 22240ft 327kts
10-Nov-20 16:51 42.953710 -118.257504 316 20227ft 328kts
10-Nov-20 16:52 43.022990 -118.332462 317 18189ft 311kts
10-Nov-20 16:53 43.090033 -118.405213 317 16156ft 306kts
10-Nov-20 16:54 43.156013 -118.476973 317 14134ft 293kts
10-Nov-20 16:55 43.217344 -118.543925 317 12106ft 276kts
10-Nov-20 16:56 43.275434 -118.607483 317 10172ft 261kts
10-Nov-20 16:57 43.330934 -118.668385 316 9004ft 253kts
10-Nov-20 16:58 43.342942 -118.745830 223 8382ft 253kts
10-Nov-20 16:59 43.310362 -118.817581 295 8003ft 241kts
10-Nov-20 16:59 43.359183 -118.861915 328 8001ft 260kts
10-Nov-20 17:01 43.427307 -118.831564 47 6327ft 273kts
10-Nov-20 17:01 43.476533 -118.823949 328 5799ft 191kts
10-Nov-20 17:03 43.520742 -118.861588 318 5783ft 129kts
10-Nov-20 17:03 43.541624 -118.886863 306 5420ft 122kts
10-Nov-20 17:04 43.566748 -118.921860 307 4848ft 105kts
10-Nov-20 17:05 43.586803 -118.949880 306 4176ft 83kts
10-Nov-20 17:06 43.588769 -118.957838 229 4150ft 19kts
10-Nov-20 17:07 43.587275 -118.956649 88 4149ft 0kts
10-Nov-20 17:08 43.586731 -118.955665 5 4149ft 0kts
10-Nov-20 17:09 43.586731 -118.955665 5 4149ft 0kts
10-Nov-20 17:10 43.586731 -118.955665 5 4149ft 0kts
10-Nov-20 17:11 43.586731 -118.955665 5 4149ft 0kts
10-Nov-20 17:12 43.586731 -118.955665 5 4149ft 0kts
10-Nov-20 17:13 43.586731 -118.955665 5 4149ft 0kts
10-Nov-20 17:14 43.586731 -118.955665 5 4149ft 0kts
10-Nov-20 17:15 43.586731 -118.955665 5 4149ft 0kts
10-Nov-20 17:16 43.586731 -118.955665 5 4149ft 0kts
10-Nov-20 17:17 43.586731 -118.955665 5 4149ft 0kts

Navigation Log

Ident Type
Flight plan parsing failed, navigation log unavailable